createdAt,value
2022-11-05T00:02:39.659Z,9.70
2022-11-05T00:05:25.655Z,11.00
2022-11-05T00:08:13.072Z,9.70
2022-11-05T00:10:40.109Z,9.60
2022-11-05T00:13:28.821Z,9.70
2022-11-05T00:16:14.334Z,9.70
2022-11-05T00:18:41.067Z,9.70
2022-11-05T00:21:30.469Z,10.30
2022-11-05T00:24:19.220Z,10.30
2022-11-05T00:26:51.555Z,9.70
2022-11-05T00:29:18.276Z,9.70
2022-11-05T00:31:45.005Z,9.60
2022-11-05T00:34:11.721Z,9.80
2022-11-05T00:36:38.389Z,9.60
2022-11-05T00:39:06.000Z,9.70
2022-11-05T00:41:32.733Z,9.60
2022-11-05T00:44:18.061Z,9.90
2022-11-05T00:46:44.954Z,11.10
2022-11-05T00:49:30.310Z,9.60
2022-11-05T00:52:15.904Z,9.60
2022-11-05T00:54:42.582Z,9.60
2022-11-05T00:57:09.231Z,9.70
2022-11-05T00:59:36.017Z,9.60
2022-11-05T01:02:09.416Z,9.70
2022-11-05T01:04:37.169Z,9.60
2022-11-05T01:07:03.930Z,9.70
2022-11-05T01:09:30.622Z,9.70
2022-11-05T01:11:57.342Z,10.70
2022-11-05T01:14:24.223Z,10.50
2022-11-05T01:16:50.920Z,9.70
2022-11-05T01:19:17.608Z,9.70
2022-11-05T01:21:44.299Z,9.70
2022-11-05T01:24:11.268Z,10.40
2022-11-05T01:26:37.955Z,9.60
2022-11-05T01:29:04.788Z,9.90
2022-11-05T01:31:31.553Z,9.60
2022-11-05T01:34:00.418Z,9.60
2022-11-05T01:36:27.095Z,10.60
2022-11-05T01:38:53.950Z,10.60
2022-11-05T01:41:20.685Z,9.60
2022-11-05T01:43:56.630Z,9.60
2022-11-05T01:46:49.630Z,9.60
2022-11-05T01:49:24.654Z,9.60
2022-11-05T01:51:51.748Z,9.60
2022-11-05T01:54:26.369Z,9.60
2022-11-05T01:56:58.398Z,10.20
2022-11-05T01:59:27.393Z,10.60
2022-11-05T02:01:54.949Z,9.70
2022-11-05T02:04:30.191Z,10.50
2022-11-05T02:06:57.648Z,9.70
2022-11-05T02:09:48.936Z,9.70
2022-11-05T02:12:16.101Z,11.70
2022-11-05T02:14:42.778Z,9.70
2022-11-05T02:17:24.345Z,9.70
2022-11-05T02:20:06.408Z,9.80
2022-11-05T02:22:47.918Z,9.70
2022-11-05T02:25:33.460Z,9.80
2022-11-05T02:28:10.549Z,10.30
2022-11-05T02:30:52.896Z,9.70
2022-11-05T02:33:56.505Z,9.70
2022-11-05T02:36:47.231Z,9.80
2022-11-05T02:39:35.968Z,9.80
2022-11-05T02:42:31.931Z,9.80
2022-11-05T02:45:22.757Z,9.70
2022-11-05T02:48:06.434Z,9.70
2022-11-05T02:51:00.133Z,9.70
2022-11-05T02:53:45.049Z,9.80
2022-11-05T02:56:20.299Z,9.70
2022-11-05T02:58:47.038Z,9.80
2022-11-05T03:01:14.137Z,9.80
2022-11-05T03:03:52.913Z,9.90
2022-11-05T03:06:47.002Z,9.80
2022-11-05T03:09:38.667Z,9.80
2022-11-05T03:12:25.777Z,9.90
2022-11-05T03:15:34.430Z,9.90
2022-11-05T03:18:13.837Z,9.90
2022-11-05T03:21:05.431Z,9.90
2022-11-05T03:23:37.960Z,9.90
2022-11-05T03:26:17.555Z,9.90
2022-11-05T03:28:49.952Z,9.90
2022-11-05T03:31:17.758Z,9.90
2022-11-05T03:33:46.541Z,9.90
2022-11-05T03:36:27.037Z,9.90
2022-11-05T03:38:56.218Z,10.00
2022-11-05T03:41:25.266Z,10.00
2022-11-05T03:43:56.601Z,10.00
2022-11-05T03:46:31.948Z,10.50
2022-11-05T03:49:02.191Z,10.00
2022-11-05T03:51:55.647Z,10.70
2022-11-05T03:54:22.796Z,10.00
2022-11-05T03:57:01.540Z,10.00
2022-11-05T03:59:30.952Z,10.00
2022-11-05T04:01:58.488Z,10.00
2022-11-05T04:04:25.593Z,10.00
2022-11-05T04:07:10.777Z,10.00
2022-11-05T04:09:56.105Z,10.30
2022-11-05T04:12:41.579Z,10.00
2022-11-05T04:15:08.743Z,10.10
2022-11-05T04:17:35.399Z,10.00
2022-11-05T04:20:20.509Z,10.00
2022-11-05T04:23:05.991Z,10.00
2022-11-05T04:25:32.730Z,10.00
2022-11-05T04:28:03.026Z,10.10
2022-11-05T04:30:29.721Z,10.10
2022-11-05T04:33:06.757Z,10.10
2022-11-05T04:35:37.633Z,10.10
2022-11-05T04:38:06.764Z,10.10
2022-11-05T04:40:34.305Z,10.10
2022-11-05T04:43:01.289Z,10.00
2022-11-05T04:45:33.020Z,10.10
2022-11-05T04:48:00.002Z,10.00
2022-11-05T04:50:27.140Z,10.00
2022-11-05T04:52:54.089Z,10.00
2022-11-05T04:55:21.191Z,10.00
2022-11-05T04:57:49.632Z,10.00
2022-11-05T05:00:16.931Z,10.00
2022-11-05T05:02:44.022Z,10.00
2022-11-05T05:05:11.170Z,10.10
2022-11-05T05:07:37.902Z,10.00
2022-11-05T05:10:06.693Z,10.70
2022-11-05T05:12:34.252Z,10.00
2022-11-05T05:15:01.045Z,11.00
2022-11-05T05:17:27.996Z,10.00
2022-11-05T05:20:13.457Z,10.70
2022-11-05T05:22:40.154Z,10.00
2022-11-05T05:25:07.106Z,10.00
2022-11-05T05:27:33.846Z,10.00
2022-11-05T05:30:00.577Z,9.90
2022-11-05T05:32:27.604Z,9.90
2022-11-05T05:34:54.389Z,9.90
2022-11-05T05:37:21.137Z,9.80
2022-11-05T05:39:48.551Z,9.80
2022-11-05T05:42:15.601Z,9.80
2022-11-05T05:44:42.619Z,9.80
2022-11-05T05:47:09.542Z,10.40
2022-11-05T05:49:36.330Z,9.80
2022-11-05T05:52:03.315Z,9.80
2022-11-05T05:54:32.823Z,9.70
2022-11-05T05:57:01.844Z,10.30
2022-11-05T05:59:28.605Z,9.70
2022-11-05T06:01:55.369Z,10.90
2022-11-05T06:04:22.231Z,9.70
2022-11-05T06:06:49.064Z,9.70
2022-11-05T06:09:16.167Z,9.70
2022-11-05T06:11:42.851Z,9.70
2022-11-05T06:14:11.544Z,10.80
2022-11-05T06:16:39.176Z,9.70
2022-11-05T06:19:07.017Z,9.70
2022-11-05T06:21:34.218Z,9.70
2022-11-05T06:24:04.855Z,9.80
2022-11-05T06:26:31.782Z,9.70
2022-11-05T06:28:58.495Z,10.60
2022-11-05T06:31:25.684Z,9.70
2022-11-05T06:33:52.499Z,10.00
2022-11-05T06:36:20.363Z,9.60
2022-11-05T06:38:47.285Z,9.60
2022-11-05T06:41:14.268Z,9.70
2022-11-05T06:43:41.455Z,9.70
2022-11-05T06:46:09.681Z,10.50
2022-11-05T06:48:36.488Z,9.60
2022-11-05T06:51:04.353Z,9.60
2022-11-05T06:53:31.491Z,9.70
2022-11-05T06:56:01.378Z,9.70
2022-11-05T06:58:28.061Z,9.80
2022-11-05T07:00:54.810Z,9.70
2022-11-05T07:03:21.559Z,9.70
2022-11-05T07:05:50.020Z,9.70
2022-11-05T07:08:17.130Z,9.70
2022-11-05T07:10:43.844Z,9.70
2022-11-05T07:13:11.096Z,9.70
2022-11-05T07:15:38.229Z,9.60
2022-11-05T07:18:07.517Z,9.70
2022-11-05T07:20:35.095Z,9.70
2022-11-05T07:23:07.937Z,9.80
2022-11-05T07:25:35.048Z,9.80
2022-11-05T07:28:02.342Z,9.80
2022-11-05T07:30:29.223Z,9.80
2022-11-05T07:32:56.284Z,9.80
2022-11-05T07:35:23.213Z,10.60
2022-11-05T07:37:51.382Z,10.10
2022-11-05T07:40:21.787Z,11.00
2022-11-05T07:42:54.757Z,10.30
2022-11-05T07:45:21.959Z,10.60
2022-11-05T07:47:50.690Z,10.00
2022-11-05T07:50:19.805Z,10.00
2022-11-05T07:52:48.050Z,10.00
2022-11-05T07:55:15.855Z,10.00
2022-11-05T07:57:48.207Z,10.10
2022-11-05T08:00:22.985Z,11.10
2022-11-05T08:03:08.776Z,10.10
2022-11-05T08:05:38.433Z,10.20
2022-11-05T08:08:09.744Z,10.20
2022-11-05T08:10:37.512Z,10.20
2022-11-05T08:13:05.530Z,10.20
2022-11-05T08:15:32.568Z,10.60
2022-11-05T08:18:08.400Z,10.30
2022-11-05T08:20:35.927Z,10.30
2022-11-05T08:23:02.908Z,10.30
2022-11-05T08:25:29.633Z,10.40
2022-11-05T08:27:58.107Z,10.40
2022-11-05T08:30:25.155Z,10.40
2022-11-05T08:32:51.904Z,10.50
2022-11-05T08:35:20.095Z,10.50
2022-11-05T08:37:46.768Z,10.50
2022-11-05T08:40:13.513Z,10.40
2022-11-05T08:42:40.248Z,10.40
2022-11-05T08:45:07.512Z,11.60
2022-11-05T08:47:34.355Z,10.40
2022-11-05T08:50:01.095Z,10.60
2022-11-05T08:52:27.774Z,10.50
2022-11-05T08:54:54.444Z,10.50
2022-11-05T08:57:21.114Z,10.60
2022-11-05T08:59:47.828Z,10.50
2022-11-05T09:02:14.638Z,10.60
2022-11-05T09:04:41.406Z,10.60
2022-11-05T09:07:08.166Z,10.60
2022-11-05T09:09:35.438Z,10.60
2022-11-05T09:12:17.421Z,10.60
2022-11-05T09:14:44.104Z,10.60
2022-11-05T09:17:21.628Z,10.60
2022-11-05T09:19:49.349Z,10.70
2022-11-05T09:22:16.046Z,10.70
2022-11-05T09:24:43.591Z,10.70
2022-11-05T09:27:12.132Z,10.80
2022-11-05T09:29:39.333Z,10.80
2022-11-05T09:32:06.401Z,10.80
2022-11-05T09:34:33.253Z,10.80
2022-11-05T09:37:01.065Z,10.80
2022-11-05T09:39:27.864Z,10.80
2022-11-05T09:42:01.976Z,10.90
2022-11-05T09:44:43.805Z,10.90
2022-11-05T09:47:20.668Z,11.10
2022-11-05T09:49:51.331Z,10.90
2022-11-05T09:52:23.784Z,10.90
2022-11-05T09:54:51.679Z,10.90
2022-11-05T09:57:25.198Z,10.90
2022-11-05T09:59:58.487Z,10.90
2022-11-05T10:02:33.395Z,10.90
2022-11-05T10:05:09.776Z,10.90
2022-11-05T10:07:53.218Z,10.90
2022-11-05T10:10:40.314Z,10.90
2022-11-05T10:13:21.242Z,10.90
2022-11-05T10:16:04.926Z,11.00
2022-11-05T10:18:41.299Z,11.00
2022-11-05T10:21:32.530Z,10.90
2022-11-05T10:27:09.177Z,11.00
2022-11-05T10:27:31.739Z,11.80
2022-11-05T10:29:58.713Z,11.80
2022-11-05T10:32:40.341Z,11.00
2022-11-05T10:35:11.248Z,12.20
2022-11-05T10:37:40.963Z,11.10
2022-11-05T10:40:53.793Z,13.00
2022-11-05T10:43:46.993Z,11.20
2022-11-05T10:46:29.198Z,11.20
2022-11-05T10:49:16.759Z,11.20
2022-11-05T10:51:45.018Z,11.10
2022-11-05T10:54:19.914Z,11.90
2022-11-05T10:56:46.991Z,11.20
2022-11-05T10:59:32.133Z,11.20
2022-11-05T11:02:03.545Z,11.90
2022-11-05T11:04:36.533Z,12.20
2022-11-05T11:07:05.168Z,11.20
2022-11-05T11:09:35.585Z,11.30
2022-11-05T11:12:07.385Z,11.20
2022-11-05T11:14:35.182Z,11.20
2022-11-05T11:17:24.454Z,11.30
2022-11-05T11:19:51.456Z,11.20
2022-11-05T11:22:20.519Z,11.30
2022-11-05T11:24:53.911Z,11.30
2022-11-05T11:27:29.818Z,11.30
2022-11-05T11:30:05.124Z,12.00
2022-11-05T11:32:38.737Z,11.30
2022-11-05T11:35:08.694Z,11.90
2022-11-05T11:37:41.950Z,11.40
2022-11-05T11:40:17.166Z,11.40
2022-11-05T11:42:51.214Z,11.40
2022-11-05T11:45:25.950Z,11.40
2022-11-05T11:47:54.565Z,11.60
2022-11-05T11:50:32.733Z,11.40
2022-11-05T11:53:24.222Z,11.50
2022-11-05T11:56:00.202Z,11.50
2022-11-05T11:58:52.660Z,11.50
2022-11-05T12:02:08.015Z,11.50
2022-11-05T12:04:40.982Z,11.50
2022-11-05T12:07:26.364Z,11.60
2022-11-05T12:10:35.151Z,11.60
2022-11-05T12:13:23.081Z,11.60
2022-11-05T12:15:52.454Z,11.60
2022-11-05T12:18:47.070Z,11.60
2022-11-05T12:21:41.066Z,11.60
2022-11-05T12:24:37.819Z,11.60
2022-11-05T12:27:28.607Z,11.60
2022-11-05T12:30:10.426Z,11.60
2022-11-05T12:33:21.020Z,11.60
2022-11-05T12:36:17.197Z,11.60
2022-11-05T12:39:00.391Z,11.70
2022-11-05T12:41:30.330Z,11.70
2022-11-05T12:44:21.251Z,11.70
2022-11-05T12:47:32.167Z,12.10
2022-11-05T12:50:17.903Z,11.80
2022-11-05T12:53:09.186Z,11.80
2022-11-05T12:55:48.126Z,11.80
2022-11-05T12:58:29.017Z,11.70
2022-11-05T13:01:14.852Z,11.70
2022-11-05T13:03:47.894Z,11.80
2022-11-05T13:06:24.179Z,11.70
2022-11-05T13:09:06.503Z,11.70
2022-11-05T13:11:52.535Z,11.70
2022-11-05T13:14:31.373Z,11.70
2022-11-05T13:17:11.512Z,11.70
2022-11-05T13:19:59.640Z,11.70
2022-11-05T13:22:55.645Z,11.80
2022-11-05T13:25:48.304Z,11.80
2022-11-05T13:28:33.856Z,11.80
2022-11-05T13:31:05.768Z,11.80
2022-11-05T13:33:36.639Z,12.00
2022-11-05T13:36:47.405Z,11.80
2022-11-05T13:39:25.670Z,11.70
2022-11-05T13:42:34.662Z,11.70
2022-11-05T13:45:13.858Z,11.70
2022-11-05T13:47:50.569Z,11.60
2022-11-05T13:50:23.085Z,11.60
2022-11-05T13:53:14.868Z,11.70
2022-11-05T13:55:52.803Z,11.60
2022-11-05T13:58:46.355Z,11.70
2022-11-05T14:01:31.826Z,11.70
2022-11-05T14:03:58.780Z,11.70
2022-11-05T14:06:34.608Z,11.70
2022-11-05T14:09:04.587Z,11.70
2022-11-05T14:11:43.347Z,11.80
2022-11-05T14:14:18.655Z,11.70
2022-11-05T14:17:08.538Z,11.70
2022-11-05T14:20:05.599Z,11.80
2022-11-05T14:22:32.313Z,11.70
2022-11-05T14:25:00.567Z,11.70
2022-11-05T14:27:43.537Z,11.70
2022-11-05T14:30:41.109Z,11.70
2022-11-05T14:33:24.622Z,11.60
2022-11-05T14:35:52.457Z,11.50
2022-11-05T14:38:23.467Z,11.50
2022-11-05T14:41:04.227Z,11.40
2022-11-05T14:43:34.024Z,11.40
2022-11-05T14:46:06.572Z,11.30
2022-11-05T14:48:53.329Z,10.90
2022-11-05T14:51:26.560Z,11.20
2022-11-05T14:54:24.362Z,11.10
2022-11-05T14:56:59.641Z,11.10
2022-11-05T14:59:29.471Z,11.10
2022-11-05T15:02:01.130Z,11.10
2022-11-05T15:04:33.352Z,11.20
2022-11-05T15:07:03.022Z,10.90
2022-11-05T15:09:38.963Z,10.90
2022-11-05T15:12:09.212Z,10.80
2022-11-05T15:15:02.078Z,10.80
2022-11-05T15:17:30.649Z,10.70
2022-11-05T15:20:15.571Z,10.60
2022-11-05T15:22:52.879Z,10.60
2022-11-05T15:25:22.518Z,10.50
2022-11-05T15:28:10.774Z,10.40
2022-11-05T15:30:37.573Z,10.30
2022-11-05T15:33:20.544Z,10.90
2022-11-05T15:35:47.554Z,10.20
2022-11-05T15:38:28.141Z,10.10
2022-11-05T15:40:59.807Z,10.20
2022-11-05T15:43:26.770Z,9.90
2022-11-05T15:46:08.112Z,10.30
2022-11-05T15:48:36.324Z,9.80
2022-11-05T15:51:03.331Z,10.80
2022-11-05T15:53:56.502Z,9.70
2022-11-05T15:56:27.424Z,10.30
2022-11-05T15:58:59.310Z,9.60
2022-11-05T16:01:51.314Z,9.40
2022-11-05T16:04:22.511Z,9.30
2022-11-05T16:06:57.220Z,9.30
2022-11-05T16:09:26.147Z,9.50
2022-11-05T16:12:24.409Z,10.30
2022-11-05T16:15:17.238Z,9.10
2022-11-05T16:17:57.646Z,9.60
2022-11-05T16:20:33.139Z,9.00
2022-11-05T16:23:02.431Z,8.90
2022-11-05T16:25:38.052Z,8.90
2022-11-05T16:28:18.498Z,8.80
2022-11-05T16:31:05.644Z,8.70
2022-11-05T16:33:46.196Z,8.60
2022-11-05T16:36:13.086Z,9.70
2022-11-05T16:38:40.023Z,9.40
2022-11-05T16:41:06.953Z,8.60
2022-11-05T16:43:34.528Z,8.50
2022-11-05T16:46:02.007Z,8.40
2022-11-05T16:48:29.019Z,9.50
2022-11-05T16:50:55.929Z,8.40
2022-11-05T16:53:22.619Z,8.30
2022-11-05T16:55:49.893Z,8.20
2022-11-05T16:58:24.066Z,8.20
2022-11-05T17:00:54.716Z,8.20
2022-11-05T17:03:21.454Z,8.20
2022-11-05T17:05:48.261Z,9.50
2022-11-05T17:08:15.527Z,8.10
2022-11-05T17:10:43.789Z,8.00
2022-11-05T17:13:15.981Z,8.00
2022-11-05T17:15:44.692Z,8.00
2022-11-05T17:18:18.256Z,7.90
2022-11-05T17:20:49.027Z,7.90
2022-11-05T17:23:18.594Z,7.90
2022-11-05T17:25:48.524Z,7.90
2022-11-05T17:28:16.677Z,7.90
2022-11-05T17:30:49.287Z,7.80
2022-11-05T17:33:19.455Z,7.80
2022-11-05T17:35:46.476Z,7.80
2022-11-05T17:38:13.391Z,7.80
2022-11-05T17:40:40.793Z,7.70
2022-11-05T17:43:08.571Z,7.70
2022-11-05T17:45:40.558Z,8.70
2022-11-05T17:48:09.307Z,7.70
2022-11-05T17:50:40.230Z,7.60
2022-11-05T17:53:07.131Z,7.60
2022-11-05T17:55:34.073Z,7.60
2022-11-05T17:58:01.117Z,7.50
2022-11-05T18:00:28.431Z,7.50
2022-11-05T18:02:55.281Z,7.40
2022-11-05T18:05:23.127Z,8.00
2022-11-05T18:07:50.188Z,7.30
2022-11-05T18:10:17.486Z,7.20
2022-11-05T18:12:44.853Z,7.30
2022-11-05T18:15:13.095Z,7.90
2022-11-05T18:17:40.206Z,8.80
2022-11-05T18:20:11.633Z,7.00
2022-11-05T18:22:42.376Z,6.90
2022-11-05T18:25:10.626Z,6.80
2022-11-05T18:27:41.010Z,6.70
2022-11-05T18:30:09.499Z,7.50
2022-11-05T18:32:36.857Z,6.70
2022-11-05T18:35:03.842Z,6.50
2022-11-05T18:37:30.665Z,6.40
2022-11-05T18:39:57.473Z,6.40
2022-11-05T18:42:25.352Z,6.30
2022-11-05T18:44:52.231Z,6.30
2022-11-05T18:47:19.138Z,6.20
2022-11-05T18:49:45.923Z,6.20
2022-11-05T18:52:13.220Z,6.10
2022-11-05T18:54:40.418Z,6.10
2022-11-05T18:57:07.400Z,6.00
2022-11-05T18:59:38.281Z,6.00
2022-11-05T19:02:06.620Z,5.90
2022-11-05T19:04:36.121Z,5.80
2022-11-05T19:07:05.341Z,5.80
2022-11-05T19:09:34.119Z,5.80
2022-11-05T19:12:01.390Z,5.60
2022-11-05T19:14:30.008Z,5.70
2022-11-05T19:16:58.355Z,5.60
2022-11-05T19:19:25.333Z,5.60
2022-11-05T19:21:52.705Z,5.50
2022-11-05T19:24:19.780Z,5.50
2022-11-05T19:26:47.540Z,5.50
2022-11-05T19:29:14.576Z,5.50
2022-11-05T19:31:41.449Z,5.40
2022-11-05T19:34:08.434Z,5.40
2022-11-05T19:36:35.315Z,5.40
2022-11-05T19:39:06.542Z,5.40
2022-11-05T19:41:33.482Z,5.40
2022-11-05T19:44:02.046Z,5.40
2022-11-05T19:46:30.383Z,6.10
2022-11-05T19:48:57.665Z,5.40
2022-11-05T19:51:27.715Z,5.40
2022-11-05T19:53:55.335Z,5.30
2022-11-05T19:56:26.186Z,5.30
2022-11-05T19:58:54.482Z,5.20
2022-11-05T20:01:23.284Z,5.20
2022-11-05T20:03:51.330Z,5.20
2022-11-05T20:06:21.969Z,5.20
2022-11-05T20:11:37.841Z,5.10
2022-11-05T20:14:05.544Z,5.10
2022-11-05T20:16:37.997Z,5.10
2022-11-05T20:19:12.330Z,5.10
2022-11-05T20:21:39.948Z,5.10
2022-11-05T20:24:07.761Z,5.10
2022-11-05T20:26:34.742Z,5.10
2022-11-05T20:29:02.291Z,5.00
2022-11-05T20:31:29.916Z,5.00
2022-11-05T20:33:57.305Z,4.90
2022-11-05T20:36:25.996Z,6.00
2022-11-05T20:38:58.580Z,5.00
2022-11-05T20:41:26.572Z,5.00
2022-11-05T20:43:54.179Z,5.00
2022-11-05T20:46:22.707Z,4.90
2022-11-05T20:48:50.251Z,4.90
2022-11-05T20:51:19.547Z,4.90
2022-11-05T20:53:46.639Z,4.90
2022-11-05T20:56:19.041Z,4.90
2022-11-05T20:58:47.356Z,4.90
2022-11-05T21:01:16.257Z,4.90
2022-11-05T21:03:43.893Z,4.90
2022-11-05T21:06:11.618Z,4.90
2022-11-05T21:08:38.625Z,4.90
2022-11-05T21:11:05.676Z,4.80
2022-11-05T21:13:33.064Z,4.80
2022-11-05T21:16:01.120Z,4.80
2022-11-05T21:18:30.441Z,4.80
2022-11-05T21:20:57.781Z,4.80
2022-11-05T21:23:24.902Z,4.70
2022-11-05T21:25:51.750Z,4.70
2022-11-05T21:28:18.813Z,4.70
2022-11-05T21:30:47.661Z,4.60
2022-11-05T21:33:15.637Z,4.60
2022-11-05T21:35:44.993Z,4.60
2022-11-05T21:38:13.770Z,4.60
2022-11-05T21:40:41.488Z,4.50
2022-11-05T21:43:08.374Z,4.50
2022-11-05T21:45:37.671Z,4.50
2022-11-05T21:48:08.908Z,4.40
2022-11-05T21:50:57.285Z,4.40
2022-11-05T21:53:42.986Z,4.30
2022-11-05T21:56:44.556Z,4.30
2022-11-05T21:59:33.659Z,4.20
2022-11-05T22:02:03.717Z,4.20
2022-11-05T22:04:35.288Z,4.10
2022-11-05T22:07:03.274Z,4.10
2022-11-05T22:09:30.444Z,4.10
2022-11-05T22:11:57.263Z,4.10
2022-11-05T22:14:24.843Z,4.00
2022-11-05T22:16:51.703Z,4.00
2022-11-05T22:19:21.642Z,4.40
2022-11-05T22:21:48.663Z,4.00
2022-11-05T22:24:16.508Z,4.00
2022-11-05T22:26:43.786Z,3.90
2022-11-05T22:29:10.485Z,3.90
2022-11-05T22:31:37.851Z,3.90
2022-11-05T22:34:05.940Z,3.80
2022-11-05T22:36:33.389Z,3.80
2022-11-05T22:39:01.845Z,3.90
2022-11-05T22:41:28.993Z,3.80
2022-11-05T22:43:55.844Z,3.80
2022-11-05T22:46:25.114Z,3.80
2022-11-05T22:48:52.569Z,3.70
2022-11-05T22:51:24.966Z,3.70
2022-11-05T22:53:51.644Z,3.70
2022-11-05T22:56:20.662Z,3.70
2022-11-05T22:58:48.043Z,3.60
2022-11-05T23:01:15.881Z,3.60
2022-11-05T23:03:44.734Z,3.50
2022-11-05T23:06:34.800Z,3.60
2022-11-05T23:09:28.000Z,3.50
2022-11-05T23:11:54.851Z,3.50
2022-11-05T23:14:21.897Z,5.60
2022-11-05T23:17:07.494Z,3.40
2022-11-05T23:19:53.313Z,3.40
2022-11-05T23:22:45.387Z,3.40
2022-11-05T23:25:18.409Z,3.40
2022-11-05T23:27:47.024Z,3.30
2022-11-05T23:30:32.032Z,3.40
2022-11-05T23:32:59.703Z,3.30
2022-11-05T23:35:46.090Z,3.30
2022-11-05T23:38:31.547Z,3.30
2022-11-05T23:41:20.523Z,3.40
2022-11-05T23:44:06.046Z,5.20
2022-11-05T23:46:51.672Z,3.30
2022-11-05T23:49:18.625Z,3.30
2022-11-05T23:51:45.518Z,3.20
2022-11-05T23:54:12.786Z,5.20
2022-11-05T23:56:39.485Z,3.20
2022-11-05T23:59:07.092Z,3.20
